createdAt,value
2023-04-03T00:01:20.711Z,100.00
2023-04-03T00:04:08.871Z,100.00
2023-04-03T00:06:42.305Z,100.00
2023-04-03T00:09:11.632Z,100.00
2023-04-03T00:11:42.868Z,100.00
2023-04-03T00:14:11.042Z,100.00
2023-04-03T00:16:55.927Z,100.00
2023-04-03T00:19:24.147Z,100.00
2023-04-03T00:21:52.351Z,100.00
2023-04-03T00:24:23.294Z,100.00
2023-04-03T00:26:59.694Z,100.00
2023-04-03T00:29:28.911Z,100.00
2023-04-03T00:31:57.081Z,100.00
2023-04-03T00:34:26.072Z,100.00
2023-04-03T00:36:54.429Z,100.00
2023-04-03T00:39:22.937Z,100.00
2023-04-03T00:41:57.200Z,100.00
2023-04-03T00:44:34.622Z,100.00
2023-04-03T00:47:03.621Z,100.00
2023-04-03T00:49:31.999Z,100.00
2023-04-03T00:52:00.475Z,100.00
2023-04-03T00:54:29.576Z,100.00
2023-04-03T00:56:59.076Z,100.00
2023-04-03T00:59:31.290Z,100.00
2023-04-03T01:02:00.369Z,100.00
2023-04-03T01:04:32.345Z,100.00
2023-04-03T01:07:03.523Z,100.00
2023-04-03T01:09:32.538Z,100.00
2023-04-03T01:12:21.520Z,100.00
2023-04-03T01:14:51.611Z,100.00
2023-04-03T01:17:25.918Z,100.00
2023-04-03T01:20:21.096Z,100.00
2023-04-03T01:23:09.740Z,100.00
2023-04-03T01:25:46.156Z,100.00
2023-04-03T01:28:20.226Z,100.00
2023-04-03T01:30:50.082Z,100.00
2023-04-03T01:33:20.539Z,100.00
2023-04-03T01:35:49.160Z,100.00
2023-04-03T01:38:18.256Z,100.00
2023-04-03T01:40:46.327Z,100.00
2023-04-03T01:43:14.934Z,100.00
2023-04-03T01:45:43.238Z,100.00
2023-04-03T01:48:11.511Z,100.00
2023-04-03T01:50:40.115Z,100.00
2023-04-03T01:53:08.473Z,100.00
2023-04-03T01:55:36.791Z,100.00
2023-04-03T01:58:05.101Z,100.00
2023-04-03T02:00:34.913Z,100.00
2023-04-03T02:03:08.061Z,100.00
2023-04-03T02:05:36.525Z,100.00
2023-04-03T02:08:05.312Z,100.00
2023-04-03T02:10:33.876Z,100.00
2023-04-03T02:13:02.204Z,100.00
2023-04-03T02:15:31.528Z,100.00
2023-04-03T02:17:59.873Z,100.00
2023-04-03T02:20:28.297Z,100.00
2023-04-03T02:22:57.091Z,100.00
2023-04-03T02:25:27.963Z,100.00
2023-04-03T02:28:03.330Z,100.00
2023-04-03T02:30:33.096Z,100.00
2023-04-03T02:33:01.922Z,100.00
2023-04-03T02:35:30.990Z,100.00
2023-04-03T02:37:59.363Z,100.00
2023-04-03T02:40:27.657Z,100.00
2023-04-03T02:42:56.052Z,100.00
2023-04-03T02:45:25.579Z,100.00
2023-04-03T02:47:54.737Z,100.00
2023-04-03T02:50:22.870Z,100.00
2023-04-03T02:52:51.161Z,100.00
2023-04-03T02:55:19.239Z,100.00
2023-04-03T02:57:48.762Z,100.00
2023-04-03T03:00:17.375Z,100.00
2023-04-03T03:02:46.958Z,100.00
2023-04-03T03:05:15.814Z,100.00
2023-04-03T03:07:43.973Z,100.00
2023-04-03T03:10:12.576Z,100.00
2023-04-03T03:12:41.799Z,100.00
2023-04-03T03:15:11.510Z,100.00
2023-04-03T03:17:40.343Z,100.00
2023-04-03T03:20:09.329Z,100.00
2023-04-03T03:22:37.716Z,100.00
2023-04-03T03:25:07.131Z,100.00
2023-04-03T03:27:37.156Z,100.00
2023-04-03T03:30:06.996Z,100.00
2023-04-03T03:32:35.457Z,100.00
2023-04-03T03:35:04.319Z,100.00
2023-04-03T03:37:32.677Z,100.00
2023-04-03T03:40:01.148Z,100.00
2023-04-03T03:42:29.950Z,100.00
2023-04-03T03:44:58.133Z,100.00
2023-04-03T03:47:26.502Z,100.00
2023-04-03T03:49:55.409Z,100.00
2023-04-03T03:52:23.510Z,100.00
2023-04-03T03:54:51.983Z,100.00
2023-04-03T03:59:44.986Z,100.00
2023-04-03T04:02:13.215Z,100.00
2023-04-03T04:04:41.701Z,100.00
2023-04-03T04:07:09.890Z,100.00
2023-04-03T04:09:38.605Z,100.00
2023-04-03T04:12:08.133Z,100.00
2023-04-03T04:14:37.450Z,100.00
2023-04-03T04:17:06.645Z,100.00
2023-04-03T04:19:35.959Z,100.00
2023-04-03T04:22:04.374Z,100.00
2023-04-03T04:24:32.659Z,100.00
2023-04-03T04:27:03.343Z,100.00
2023-04-03T04:29:36.719Z,100.00
2023-04-03T04:32:05.696Z,100.00
2023-04-03T04:34:35.145Z,100.00
2023-04-03T04:37:04.061Z,100.00
2023-04-03T04:39:33.072Z,100.00
2023-04-03T04:42:01.694Z,100.00
2023-04-03T04:44:31.787Z,100.00
2023-04-03T04:47:02.074Z,100.00
2023-04-03T04:49:30.788Z,100.00
2023-04-03T04:51:59.275Z,100.00
2023-04-03T04:54:30.595Z,100.00
2023-04-03T04:56:59.707Z,100.00
2023-04-03T04:59:28.771Z,100.00
2023-04-03T05:01:57.845Z,100.00
2023-04-03T05:04:26.716Z,100.00
2023-04-03T05:06:58.406Z,100.00
2023-04-03T05:09:29.456Z,100.00
2023-04-03T05:11:57.842Z,100.00
2023-04-03T05:14:28.480Z,100.00
2023-04-03T05:16:58.722Z,100.00
2023-04-03T05:19:29.425Z,100.00
2023-04-03T05:21:58.439Z,100.00
2023-04-03T05:24:27.439Z,100.00
2023-04-03T05:26:56.538Z,100.00
2023-04-03T05:29:25.656Z,100.00
2023-04-03T05:31:53.873Z,100.00
2023-04-03T05:34:22.209Z,100.00
2023-04-03T05:36:51.382Z,100.00
2023-04-03T05:39:20.479Z,100.00
2023-04-03T05:41:49.674Z,100.00
2023-04-03T05:44:17.718Z,100.00
2023-04-03T05:46:47.281Z,100.00
2023-04-03T05:49:16.612Z,100.00
2023-04-03T05:51:46.129Z,100.00
2023-04-03T05:54:26.858Z,100.00
2023-04-03T05:56:59.378Z,100.00
2023-04-03T05:59:28.334Z,100.00
2023-04-03T06:02:02.234Z,100.00
2023-04-03T06:04:31.029Z,100.00
2023-04-03T06:06:59.448Z,100.00
2023-04-03T06:09:32.221Z,100.00
2023-04-03T06:12:01.139Z,100.00
2023-04-03T06:14:29.846Z,100.00
2023-04-03T06:17:03.714Z,100.00
2023-04-03T06:19:32.640Z,100.00
2023-04-03T06:22:01.650Z,100.00
2023-04-03T06:24:31.234Z,100.00
2023-04-03T06:26:59.317Z,100.00
2023-04-03T06:29:27.830Z,100.00
2023-04-03T06:31:56.752Z,100.00
2023-04-03T06:34:24.858Z,100.00
2023-04-03T06:36:53.732Z,100.00
2023-04-03T06:39:25.781Z,100.00
2023-04-03T06:41:53.933Z,100.00
2023-04-03T06:44:29.248Z,100.00
2023-04-03T06:46:57.472Z,100.00
2023-04-03T06:49:26.274Z,100.00
2023-04-03T06:51:54.704Z,100.00
2023-04-03T06:54:23.532Z,100.00
2023-04-03T06:56:52.971Z,100.00
2023-04-03T06:59:21.081Z,100.00
2023-04-03T07:01:50.217Z,100.00
2023-04-03T07:04:21.304Z,100.00
2023-04-03T07:06:49.433Z,100.00
2023-04-03T07:09:17.787Z,100.00
2023-04-03T07:11:47.091Z,100.00
2023-04-03T07:14:15.680Z,100.00
2023-04-03T07:16:43.945Z,100.00
2023-04-03T07:19:14.002Z,100.00
2023-04-03T07:21:43.071Z,100.00
2023-04-03T07:24:15.081Z,100.00
2023-04-03T07:26:46.278Z,100.00
2023-04-03T07:29:15.098Z,100.00
2023-04-03T07:31:43.492Z,100.00
2023-04-03T07:34:12.657Z,100.00
2023-04-03T07:36:41.766Z,100.00
2023-04-03T07:39:10.396Z,100.00
2023-04-03T07:41:40.726Z,100.00
2023-04-03T07:44:11.006Z,100.00
2023-04-03T07:46:39.584Z,100.00
2023-04-03T07:49:07.962Z,100.00
2023-04-03T07:51:36.300Z,100.00
2023-04-03T07:54:05.133Z,99.42
2023-04-03T07:56:34.490Z,98.42
2023-04-03T07:59:07.796Z,97.72
2023-04-03T08:01:36.455Z,96.47
2023-04-03T08:04:05.175Z,97.41
2023-04-03T08:06:45.884Z,97.59
2023-04-03T08:09:19.922Z,95.81
2023-04-03T08:11:48.016Z,95.67
2023-04-03T08:14:19.621Z,94.95
2023-04-03T08:16:48.590Z,93.51
2023-04-03T08:19:25.541Z,92.17
2023-04-03T08:21:55.783Z,92.03
2023-04-03T08:24:24.131Z,92.21
2023-04-03T08:26:52.762Z,92.72
2023-04-03T08:29:22.337Z,93.49
2023-04-03T08:31:51.522Z,94.66
2023-04-03T08:34:20.429Z,94.55
2023-04-03T08:36:52.112Z,92.35
2023-04-03T08:39:20.858Z,91.83
2023-04-03T08:41:49.157Z,92.21
2023-04-03T08:44:24.176Z,91.90
2023-04-03T08:47:09.830Z,90.04
2023-04-03T08:49:54.145Z,90.26
2023-04-03T08:52:46.694Z,91.67
2023-04-03T08:55:18.722Z,91.40
2023-04-03T08:57:46.983Z,90.18
2023-04-03T09:00:15.196Z,89.44
2023-04-03T09:02:48.127Z,86.79
2023-04-03T09:05:18.784Z,85.15
2023-04-03T09:07:50.858Z,86.19
2023-04-03T09:10:25.929Z,85.10
2023-04-03T09:13:01.237Z,84.92
2023-04-03T09:15:38.412Z,84.77
2023-04-03T09:18:33.178Z,85.29
2023-04-03T09:21:46.353Z,86.80
2023-04-03T09:24:15.811Z,87.19
2023-04-03T09:27:00.876Z,87.82
2023-04-03T09:29:29.738Z,88.32
2023-04-03T09:32:01.433Z,88.58
2023-04-03T09:34:34.314Z,87.98
2023-04-03T09:37:09.891Z,88.75
2023-04-03T09:39:55.859Z,89.82
2023-04-03T09:42:25.069Z,90.97
2023-04-03T09:45:02.522Z,91.70
2023-04-03T09:47:31.546Z,92.29
2023-04-03T09:50:13.269Z,92.52
2023-04-03T09:52:43.591Z,92.32
2023-04-03T09:55:27.882Z,92.20
2023-04-03T09:58:03.544Z,90.18
2023-04-03T10:00:36.533Z,89.32
2023-04-03T10:03:06.847Z,88.44
2023-04-03T10:05:36.469Z,88.70
2023-04-03T10:08:31.714Z,88.82
2023-04-03T10:11:17.794Z,88.39
2023-04-03T10:14:00.714Z,87.39
2023-04-03T10:16:38.961Z,86.86
2023-04-03T10:19:24.924Z,86.62
2023-04-03T10:22:05.017Z,85.40
2023-04-03T10:24:52.136Z,84.41
2023-04-03T10:27:35.844Z,85.46
2023-04-03T10:30:31.885Z,85.34
2023-04-03T10:33:26.532Z,85.79
2023-04-03T10:36:03.627Z,84.67
2023-04-03T10:38:56.084Z,83.91
2023-04-03T10:41:35.903Z,82.30
2023-04-03T10:44:28.055Z,82.41
2023-04-03T10:47:20.203Z,82.85
2023-04-03T10:50:01.513Z,83.89
2023-04-03T10:52:51.796Z,85.26
2023-04-03T10:55:26.228Z,85.93
2023-04-03T10:57:55.504Z,85.70
2023-04-03T11:00:36.132Z,85.25
2023-04-03T11:03:07.912Z,83.70
2023-04-03T11:05:44.930Z,83.80
2023-04-03T11:08:26.175Z,84.56
2023-04-03T11:10:56.784Z,83.12
2023-04-03T11:13:35.357Z,82.20
2023-04-03T11:16:03.728Z,81.24
2023-04-03T11:18:46.052Z,81.07
2023-04-03T11:21:44.962Z,80.84
2023-04-03T11:24:18.184Z,80.70
2023-04-03T11:26:46.817Z,81.01
2023-04-03T11:29:28.195Z,80.96
2023-04-03T11:32:10.086Z,80.87
2023-04-03T11:34:44.180Z,80.77
2023-04-03T11:37:30.052Z,80.82
2023-04-03T11:40:08.382Z,79.58
2023-04-03T11:42:39.173Z,79.63
2023-04-03T11:45:27.898Z,80.70
2023-04-03T11:48:04.809Z,81.87
2023-04-03T11:50:46.922Z,82.51
2023-04-03T11:53:15.765Z,82.72
2023-04-03T11:55:49.508Z,82.19
2023-04-03T11:58:19.653Z,82.37
2023-04-03T12:00:56.163Z,82.78
2023-04-03T12:03:25.049Z,83.22
2023-04-03T12:06:05.761Z,83.09
2023-04-03T12:08:35.342Z,83.87
2023-04-03T12:11:09.420Z,83.95
2023-04-03T12:14:05.768Z,84.30
2023-04-03T12:16:40.286Z,82.53
2023-04-03T12:19:14.755Z,82.16
2023-04-03T12:21:58.400Z,82.68
2023-04-03T12:24:31.101Z,83.19
2023-04-03T12:27:23.484Z,82.65
2023-04-03T12:30:06.958Z,82.62
2023-04-03T12:32:52.116Z,83.11
2023-04-03T12:35:32.588Z,84.18
2023-04-03T12:38:19.612Z,84.42
2023-04-03T12:41:13.079Z,84.64
2023-04-03T12:43:44.047Z,85.53
2023-04-03T12:46:17.555Z,86.66
2023-04-03T12:48:45.572Z,87.13
2023-04-03T12:51:22.272Z,87.70
2023-04-03T12:53:51.517Z,87.18
2023-04-03T12:56:27.753Z,87.06
2023-04-03T12:58:59.354Z,87.08
2023-04-03T13:01:32.811Z,86.67
2023-04-03T13:04:12.423Z,86.38
2023-04-03T13:06:44.069Z,86.29
2023-04-03T13:09:22.874Z,85.93
2023-04-03T13:11:53.278Z,86.49
2023-04-03T13:14:23.583Z,86.63
2023-04-03T13:16:56.640Z,86.35
2023-04-03T13:19:28.386Z,86.18
2023-04-03T13:22:04.506Z,86.46
2023-04-03T13:24:37.216Z,86.98
2023-04-03T13:27:06.528Z,87.57
2023-04-03T13:29:36.361Z,87.91
2023-04-03T13:32:06.262Z,88.21
2023-04-03T13:34:39.066Z,88.40
2023-04-03T13:37:09.056Z,88.41
2023-04-03T13:39:39.444Z,88.85
2023-04-03T13:42:28.594Z,88.41
2023-04-03T13:45:17.412Z,88.31
2023-04-03T13:47:46.487Z,88.79
2023-04-03T13:50:20.004Z,89.52
2023-04-03T13:53:01.228Z,89.58
2023-04-03T13:55:35.724Z,90.20
2023-04-03T13:58:09.952Z,91.57
2023-04-03T14:00:38.913Z,91.75
2023-04-03T14:03:23.073Z,91.88
2023-04-03T14:05:51.642Z,92.36
2023-04-03T14:08:24.287Z,92.87
2023-04-03T14:11:01.395Z,93.49
2023-04-03T14:13:30.555Z,94.36
2023-04-03T14:16:08.944Z,95.08
2023-04-03T14:18:41.671Z,95.78
2023-04-03T14:21:12.352Z,95.88
2023-04-03T14:23:41.147Z,95.70
2023-04-03T14:26:23.671Z,96.18
2023-04-03T14:28:55.152Z,96.59
2023-04-03T14:31:23.396Z,96.69
2023-04-03T14:33:52.455Z,97.32
2023-04-03T14:36:26.381Z,98.14
2023-04-03T14:38:55.778Z,98.71
2023-04-03T14:41:24.856Z,98.35
2023-04-03T14:43:53.242Z,98.76
2023-04-03T14:46:38.721Z,99.03
2023-04-03T14:49:21.531Z,99.63
2023-04-03T14:51:49.493Z,99.68
2023-04-03T14:54:22.585Z,99.71
2023-04-03T14:56:50.713Z,99.34
2023-04-03T14:59:21.275Z,99.19
2023-04-03T15:01:49.886Z,99.42
2023-04-03T15:04:19.703Z,98.09
2023-04-03T15:06:48.742Z,97.39
2023-04-03T15:09:22.361Z,98.01
2023-04-03T15:11:51.246Z,97.52
2023-04-03T15:14:29.917Z,96.93
2023-04-03T15:17:07.775Z,97.70
2023-04-03T15:19:40.529Z,97.90
2023-04-03T15:22:14.167Z,97.60
2023-04-03T15:24:42.957Z,97.26
2023-04-03T15:27:11.769Z,96.88
2023-04-03T15:29:41.389Z,96.38
2023-04-03T15:32:10.162Z,96.43
2023-04-03T15:34:39.810Z,95.58
2023-04-03T15:37:12.841Z,95.48
2023-04-03T15:39:41.363Z,96.23
2023-04-03T15:42:13.401Z,96.43
2023-04-03T15:44:41.593Z,96.16
2023-04-03T15:47:09.672Z,95.97
2023-04-03T15:49:38.193Z,96.14
2023-04-03T15:52:06.577Z,95.76
2023-04-03T15:54:34.953Z,95.94
2023-04-03T15:57:03.454Z,95.58
2023-04-03T15:59:33.115Z,95.03
2023-04-03T16:02:02.112Z,95.08
2023-04-03T16:04:30.651Z,94.97
2023-04-03T16:07:02.938Z,94.91
2023-04-03T16:09:32.921Z,94.97
2023-04-03T16:12:04.874Z,95.20
2023-04-03T16:14:38.766Z,95.22
2023-04-03T16:18:48.367Z,94.90
2023-04-03T16:21:21.301Z,94.59
2023-04-03T16:23:50.610Z,93.32
2023-04-03T16:26:21.408Z,93.34
2023-04-03T16:28:50.373Z,93.56
2023-04-03T16:31:18.679Z,93.61
2023-04-03T16:33:47.676Z,93.81
2023-04-03T16:36:16.059Z,94.52
2023-04-03T16:38:47.127Z,94.75
2023-04-03T16:41:15.530Z,94.84
2023-04-03T16:46:16.707Z,95.12
2023-04-03T16:48:44.941Z,95.30
2023-04-03T16:51:14.281Z,95.69
2023-04-03T16:53:43.289Z,95.73
2023-04-03T16:56:11.482Z,96.10
2023-04-03T16:58:40.809Z,95.97
2023-04-03T17:01:11.195Z,95.69
2023-04-03T17:03:40.897Z,95.50
2023-04-03T17:06:09.061Z,95.32
2023-04-03T17:08:37.537Z,95.16
2023-04-03T17:11:11.491Z,95.64
2023-04-03T17:13:40.515Z,95.09
2023-04-03T17:16:11.403Z,94.71
2023-04-03T17:18:40.860Z,94.67
2023-04-03T17:21:10.816Z,94.97
2023-04-03T17:23:39.152Z,94.85
2023-04-03T17:26:07.894Z,94.33
2023-04-03T17:28:37.102Z,94.11
2023-04-03T17:31:05.172Z,93.79
2023-04-03T17:33:34.926Z,93.74
2023-04-03T17:36:04.562Z,93.81
2023-04-03T17:38:35.133Z,93.78
2023-04-03T17:41:05.537Z,93.12
2023-04-03T17:43:33.835Z,92.78
2023-04-03T17:46:04.524Z,92.41
2023-04-03T17:48:34.198Z,92.13
2023-04-03T17:51:06.821Z,92.44
2023-04-03T17:53:35.046Z,92.42
2023-04-03T17:56:10.931Z,92.57
2023-04-03T17:58:39.647Z,92.66
2023-04-03T18:08:55.007Z,92.77
2023-04-03T18:11:27.693Z,92.67
2023-04-03T18:13:58.517Z,92.81
2023-04-03T18:16:27.514Z,92.68
2023-04-03T18:19:06.807Z,92.35
2023-04-03T18:21:41.081Z,92.48
2023-04-03T18:24:12.491Z,92.50
2023-04-03T18:26:42.768Z,92.35
2023-04-03T18:29:13.010Z,92.17
2023-04-03T18:31:41.966Z,92.27
2023-04-03T18:34:09.959Z,92.09
2023-04-03T18:36:38.091Z,92.06
2023-04-03T18:39:06.597Z,92.27
2023-04-03T18:41:35.679Z,92.45
2023-04-03T18:44:19.906Z,92.48
2023-04-03T18:46:48.644Z,92.82
2023-04-03T18:49:18.286Z,92.81
2023-04-03T18:51:47.030Z,93.16
2023-04-03T18:54:16.328Z,93.39
2023-04-03T18:56:45.272Z,93.64
2023-04-03T18:59:14.145Z,94.10
2023-04-03T19:01:42.693Z,94.27
2023-04-03T19:04:11.724Z,94.35
2023-04-03T19:06:39.948Z,94.42
2023-04-03T19:09:08.594Z,94.53
2023-04-03T19:11:36.841Z,94.77
2023-04-03T19:14:16.535Z,94.82
2023-04-03T19:16:45.643Z,94.93
2023-04-03T19:19:13.904Z,94.77
2023-04-03T19:21:42.241Z,94.48
2023-04-03T19:24:11.567Z,94.26
2023-04-03T19:26:46.206Z,94.20
2023-04-03T19:29:14.735Z,93.81
2023-04-03T19:31:42.995Z,93.70
2023-04-03T19:34:11.363Z,93.58
2023-04-03T19:36:39.613Z,93.73
2023-04-03T19:39:08.121Z,93.86
2023-04-03T19:41:37.180Z,94.09
2023-04-03T19:44:06.576Z,94.11
2023-04-03T19:46:34.899Z,94.12
2023-04-03T19:49:03.418Z,94.47
2023-04-03T19:51:33.576Z,94.58
2023-04-03T19:54:01.936Z,95.03
2023-04-03T19:56:34.761Z,95.00
2023-04-03T19:59:02.813Z,95.14
2023-04-03T20:01:31.243Z,95.24
2023-04-03T20:04:00.510Z,95.39
2023-04-03T20:06:28.922Z,95.44
2023-04-03T20:08:57.027Z,95.56
2023-04-03T20:11:26.722Z,95.81
2023-04-03T20:13:55.398Z,95.66
2023-04-03T20:16:25.864Z,95.81
2023-04-03T20:18:56.769Z,96.14
2023-04-03T20:24:16.351Z,95.81
2023-04-03T20:26:47.178Z,96.04
2023-04-03T20:29:16.624Z,96.42
2023-04-03T20:31:45.205Z,96.88
2023-04-03T20:39:45.777Z,97.19
2023-04-03T20:44:59.332Z,97.62
2023-04-03T20:47:28.039Z,98.04
2023-04-03T20:55:42.455Z,98.57
2023-04-03T20:58:11.471Z,98.39
2023-04-03T21:00:40.927Z,98.35
2023-04-03T21:03:09.712Z,98.51
2023-04-03T21:05:38.376Z,98.47
2023-04-03T21:08:47.954Z,98.65
2023-04-03T21:11:54.985Z,98.48
2023-04-03T21:15:01.834Z,98.31
2023-04-03T21:17:30.521Z,98.36
2023-04-03T21:19:58.434Z,98.09
2023-04-03T21:22:26.348Z,98.04
2023-04-03T21:24:54.442Z,98.30
2023-04-03T21:27:22.704Z,98.29
2023-04-03T21:29:52.456Z,98.14
2023-04-03T21:32:21.008Z,98.45
2023-04-03T21:34:49.203Z,98.52
2023-04-03T21:37:17.323Z,98.68
2023-04-03T21:39:46.152Z,98.84
2023-04-03T21:42:14.339Z,99.10
2023-04-03T21:44:42.606Z,99.38
2023-04-03T21:47:11.794Z,99.77
2023-04-03T21:49:40.210Z,99.93
2023-04-03T21:52:09.378Z,100.00
2023-04-03T21:54:38.376Z,100.00
2023-04-03T21:57:06.338Z,100.00
2023-04-03T21:59:34.964Z,100.00
2023-04-03T22:02:03.378Z,100.00
2023-04-03T22:04:31.775Z,100.00
2023-04-03T22:07:00.115Z,100.00
2023-04-03T22:09:28.538Z,100.00
2023-04-03T22:11:57.166Z,100.00
2023-04-03T22:14:26.215Z,100.00
2023-04-03T22:16:55.542Z,100.00
2023-04-03T22:19:23.906Z,100.00
2023-04-03T22:21:55.199Z,100.00
2023-04-03T22:24:23.800Z,100.00
2023-04-03T22:26:51.958Z,100.00
2023-04-03T22:29:20.257Z,100.00
2023-04-03T22:31:48.560Z,100.00
2023-04-03T22:34:16.741Z,100.00
2023-04-03T22:36:45.140Z,100.00
2023-04-03T22:39:15.322Z,100.00
2023-04-03T22:41:45.305Z,100.00
2023-04-03T22:44:13.886Z,100.00
2023-04-03T22:46:43.971Z,100.00
2023-04-03T22:49:12.397Z,100.00
2023-04-03T22:51:40.612Z,100.00
2023-04-03T22:54:09.074Z,100.00
2023-04-03T22:56:37.564Z,100.00
2023-04-03T22:59:07.351Z,100.00
2023-04-03T23:01:38.730Z,100.00
2023-04-03T23:04:08.459Z,100.00
2023-04-03T23:06:36.907Z,100.00
2023-04-03T23:09:05.174Z,100.00
2023-04-03T23:11:33.265Z,100.00
2023-04-03T23:14:03.146Z,100.00
2023-04-03T23:16:31.823Z,100.00
2023-04-03T23:19:00.848Z,100.00
2023-04-03T23:21:35.256Z,100.00
2023-04-03T23:24:03.751Z,100.00
2023-04-03T23:26:31.847Z,100.00
2023-04-03T23:29:00.631Z,100.00
2023-04-03T23:31:29.269Z,100.00
2023-04-03T23:44:15.451Z,100.00
2023-04-03T23:46:43.818Z,100.00
2023-04-03T23:49:12.019Z,100.00
2023-04-03T23:51:40.826Z,100.00
2023-04-03T23:54:09.012Z,100.00
2023-04-03T23:56:38.367Z,100.00
2023-04-03T23:59:06.929Z,100.00
